sensor_id;sensor_type;location;lat;lon;timestamp;P1;durP1;ratioP1;P2;durP2;ratioP2
18808;SDS011;9532;54.322;10.116;2022-10-31T00:00:29;12.17;;;6.83;;
18808;SDS011;9532;54.322;10.116;2022-10-31T00:02:56;11.10;;;6.80;;
18808;SDS011;9532;54.322;10.116;2022-10-31T00:05:23;10.70;;;7.00;;
18808;SDS011;9532;54.322;10.116;2022-10-31T00:07:51;11.50;;;7.43;;
18808;SDS011;9532;54.322;10.116;2022-10-31T00:10:18;12.77;;;7.37;;
18808;SDS011;9532;54.322;10.116;2022-10-31T00:12:46;10.80;;;6.50;;
18808;SDS011;9532;54.322;10.116;2022-10-31T00:15:15;10.10;;;6.30;;
18808;SDS011;9532;54.322;10.116;2022-10-31T00:17:41;12.93;;;6.70;;
18808;SDS011;9532;54.322;10.116;2022-10-31T00:20:09;9.33;;;6.27;;
18808;SDS011;9532;54.322;10.116;2022-10-31T00:22:36;10.77;;;6.97;;
18808;SDS011;9532;54.322;10.116;2022-10-31T00:25:03;12.37;;;6.73;;
18808;SDS011;9532;54.322;10.116;2022-10-31T00:27:30;11.30;;;6.17;;
18808;SDS011;9532;54.322;10.116;2022-10-31T00:29:57;11.37;;;6.67;;
18808;SDS011;9532;54.322;10.116;2022-10-31T00:32:28;12.13;;;6.40;;
18808;SDS011;9532;54.322;10.116;2022-10-31T00:34:55;11.20;;;6.97;;
18808;SDS011;9532;54.322;10.116;2022-10-31T00:37:22;11.17;;;6.87;;
18808;SDS011;9532;54.322;10.116;2022-10-31T00:39:49;12.50;;;6.20;;
18808;SDS011;9532;54.322;10.116;2022-10-31T00:42:16;10.63;;;6.20;;
18808;SDS011;9532;54.322;10.116;2022-10-31T00:44:43;8.90;;;5.87;;
18808;SDS011;9532;54.322;10.116;2022-10-31T00:47:10;9.07;;;6.30;;
18808;SDS011;9532;54.322;10.116;2022-10-31T00:49:38;10.23;;;6.60;;
18808;SDS011;9532;54.322;10.116;2022-10-31T00:52:06;9.77;;;6.33;;
18808;SDS011;9532;54.322;10.116;2022-10-31T00:54:32;11.73;;;6.60;;
18808;SDS011;9532;54.322;10.116;2022-10-31T00:57:00;10.20;;;6.40;;
18808;SDS011;9532;54.322;10.116;2022-10-31T00:59:27;10.57;;;6.13;;
18808;SDS011;9532;54.322;10.116;2022-10-31T01:01:54;10.73;;;6.40;;
18808;SDS011;9532;54.322;10.116;2022-10-31T01:04:21;9.77;;;6.27;;
18808;SDS011;9532;54.322;10.116;2022-10-31T01:06:50;11.70;;;7.03;;
18808;SDS011;9532;54.322;10.116;2022-10-31T01:09:17;10.17;;;6.20;;
18808;SDS011;9532;54.322;10.116;2022-10-31T01:11:45;10.67;;;6.53;;
18808;SDS011;9532;54.322;10.116;2022-10-31T01:14:12;10.20;;;6.20;;
18808;SDS011;9532;54.322;10.116;2022-10-31T01:16:39;11.10;;;5.70;;
18808;SDS011;9532;54.322;10.116;2022-10-31T01:19:06;10.00;;;6.13;;
18808;SDS011;9532;54.322;10.116;2022-10-31T01:21:33;10.33;;;6.20;;
18808;SDS011;9532;54.322;10.116;2022-10-31T01:24:02;9.10;;;6.23;;
18808;SDS011;9532;54.322;10.116;2022-10-31T01:26:30;9.03;;;6.13;;
18808;SDS011;9532;54.322;10.116;2022-10-31T01:28:59;12.10;;;6.23;;
18808;SDS011;9532;54.322;10.116;2022-10-31T01:31:28;8.57;;;5.70;;
18808;SDS011;9532;54.322;10.116;2022-10-31T01:33:57;9.93;;;6.27;;
18808;SDS011;9532;54.322;10.116;2022-10-31T01:36:25;11.00;;;5.97;;
18808;SDS011;9532;54.322;10.116;2022-10-31T01:38:55;9.03;;;5.77;;
18808;SDS011;9532;54.322;10.116;2022-10-31T01:41:26;11.20;;;5.87;;
18808;SDS011;9532;54.322;10.116;2022-10-31T01:43:55;10.53;;;5.83;;
18808;SDS011;9532;54.322;10.116;2022-10-31T01:46:24;9.97;;;6.10;;
18808;SDS011;9532;54.322;10.116;2022-10-31T01:48:55;9.80;;;5.83;;
18808;SDS011;9532;54.322;10.116;2022-10-31T01:51:26;8.07;;;5.70;;
18808;SDS011;9532;54.322;10.116;2022-10-31T01:53:58;7.77;;;5.73;;
18808;SDS011;9532;54.322;10.116;2022-10-31T01:56:29;8.07;;;5.27;;
18808;SDS011;9532;54.322;10.116;2022-10-31T01:58:57;7.43;;;5.33;;
18808;SDS011;9532;54.322;10.116;2022-10-31T02:01:26;8.23;;;5.73;;
18808;SDS011;9532;54.322;10.116;2022-10-31T02:03:54;10.07;;;5.63;;
18808;SDS011;9532;54.322;10.116;2022-10-31T02:06:25;9.87;;;5.30;;
18808;SDS011;9532;54.322;10.116;2022-10-31T02:08:59;8.23;;;5.40;;
18808;SDS011;9532;54.322;10.116;2022-10-31T02:11:29;7.50;;;5.37;;
18808;SDS011;9532;54.322;10.116;2022-10-31T02:13:59;7.73;;;5.40;;
18808;SDS011;9532;54.322;10.116;2022-10-31T02:16:27;7.93;;;5.60;;
18808;SDS011;9532;54.322;10.116;2022-10-31T02:18:55;8.83;;;5.03;;
18808;SDS011;9532;54.322;10.116;2022-10-31T02:21:23;7.77;;;5.67;;
18808;SDS011;9532;54.322;10.116;2022-10-31T02:24:00;7.30;;;5.40;;
18808;SDS011;9532;54.322;10.116;2022-10-31T02:27:01;8.23;;;5.60;;
18808;SDS011;9532;54.322;10.116;2022-10-31T02:32:34;7.57;;;5.53;;
18808;SDS011;9532;54.322;10.116;2022-10-31T02:35:10;8.27;;;4.97;;
18808;SDS011;9532;54.322;10.116;2022-10-31T02:37:44;8.30;;;5.03;;
18808;SDS011;9532;54.322;10.116;2022-10-31T02:40:15;7.07;;;5.10;;
18808;SDS011;9532;54.322;10.116;2022-10-31T02:42:49;6.87;;;5.20;;
18808;SDS011;9532;54.322;10.116;2022-10-31T02:45:29;7.57;;;5.20;;
18808;SDS011;9532;54.322;10.116;2022-10-31T02:48:02;7.90;;;5.37;;
18808;SDS011;9532;54.322;10.116;2022-10-31T02:50:35;8.27;;;5.50;;
18808;SDS011;9532;54.322;10.116;2022-10-31T02:53:06;7.77;;;5.53;;
18808;SDS011;9532;54.322;10.116;2022-10-31T02:55:51;7.57;;;5.47;;
18808;SDS011;9532;54.322;10.116;2022-10-31T02:58:26;7.10;;;5.00;;
18808;SDS011;9532;54.322;10.116;2022-10-31T03:01:01;10.37;;;4.97;;
18808;SDS011;9532;54.322;10.116;2022-10-31T03:03:56;6.90;;;4.93;;
18808;SDS011;9532;54.322;10.116;2022-10-31T03:06:35;7.40;;;4.97;;
18808;SDS011;9532;54.322;10.116;2022-10-31T03:09:09;6.40;;;4.63;;
18808;SDS011;9532;54.322;10.116;2022-10-31T03:11:43;7.83;;;4.60;;
18808;SDS011;9532;54.322;10.116;2022-10-31T03:14:16;7.03;;;4.80;;
18808;SDS011;9532;54.322;10.116;2022-10-31T03:16:48;7.93;;;5.27;;
18808;SDS011;9532;54.322;10.116;2022-10-31T03:19:18;5.83;;;4.80;;
18808;SDS011;9532;54.322;10.116;2022-10-31T03:21:50;6.90;;;5.00;;
18808;SDS011;9532;54.322;10.116;2022-10-31T03:24:22;6.83;;;4.53;;
18808;SDS011;9532;54.322;10.116;2022-10-31T03:26:54;7.40;;;4.63;;
18808;SDS011;9532;54.322;10.116;2022-10-31T03:29:25;7.50;;;5.03;;
18808;SDS011;9532;54.322;10.116;2022-10-31T03:31:55;8.27;;;5.23;;
18808;SDS011;9532;54.322;10.116;2022-10-31T03:34:27;7.87;;;5.23;;
18808;SDS011;9532;54.322;10.116;2022-10-31T03:36:57;7.67;;;5.00;;
18808;SDS011;9532;54.322;10.116;2022-10-31T03:39:27;7.50;;;5.00;;
18808;SDS011;9532;54.322;10.116;2022-10-31T03:41:56;8.30;;;4.80;;
18808;SDS011;9532;54.322;10.116;2022-10-31T03:44:26;6.67;;;4.93;;
18808;SDS011;9532;54.322;10.116;2022-10-31T03:46:55;5.17;;;4.43;;
18808;SDS011;9532;54.322;10.116;2022-10-31T03:49:23;6.70;;;4.87;;
18808;SDS011;9532;54.322;10.116;2022-10-31T03:51:53;6.90;;;4.67;;
18808;SDS011;9532;54.322;10.116;2022-10-31T03:54:24;6.20;;;4.80;;
18808;SDS011;9532;54.322;10.116;2022-10-31T03:56:55;6.20;;;4.50;;
18808;SDS011;9532;54.322;10.116;2022-10-31T03:59:28;7.20;;;5.27;;
18808;SDS011;9532;54.322;10.116;2022-10-31T04:02:00;6.17;;;4.40;;
18808;SDS011;9532;54.322;10.116;2022-10-31T04:04:32;6.70;;;4.53;;
18808;SDS011;9532;54.322;10.116;2022-10-31T04:07:02;7.50;;;5.03;;
18808;SDS011;9532;54.322;10.116;2022-10-31T04:09:32;6.67;;;4.60;;
18808;SDS011;9532;54.322;10.116;2022-10-31T04:12:03;6.60;;;4.83;;
18808;SDS011;9532;54.322;10.116;2022-10-31T04:14:35;6.30;;;4.67;;
18808;SDS011;9532;54.322;10.116;2022-10-31T04:17:07;5.83;;;4.23;;
18808;SDS011;9532;54.322;10.116;2022-10-31T04:19:38;6.90;;;4.43;;
18808;SDS011;9532;54.322;10.116;2022-10-31T04:22:07;6.37;;;4.27;;
18808;SDS011;9532;54.322;10.116;2022-10-31T04:24:34;6.60;;;4.70;;
18808;SDS011;9532;54.322;10.116;2022-10-31T04:27:03;6.87;;;4.60;;
18808;SDS011;9532;54.322;10.116;2022-10-31T04:29:31;6.60;;;4.50;;
18808;SDS011;9532;54.322;10.116;2022-10-31T04:31:58;8.27;;;4.50;;
18808;SDS011;9532;54.322;10.116;2022-10-31T04:34:25;5.50;;;4.40;;
18808;SDS011;9532;54.322;10.116;2022-10-31T04:36:52;7.07;;;4.50;;
18808;SDS011;9532;54.322;10.116;2022-10-31T04:39:20;6.93;;;4.37;;
18808;SDS011;9532;54.322;10.116;2022-10-31T04:41:47;5.63;;;4.20;;
18808;SDS011;9532;54.322;10.116;2022-10-31T04:44:14;5.47;;;4.57;;
18808;SDS011;9532;54.322;10.116;2022-10-31T04:46:41;5.57;;;4.33;;
18808;SDS011;9532;54.322;10.116;2022-10-31T04:49:08;6.27;;;4.50;;
18808;SDS011;9532;54.322;10.116;2022-10-31T04:51:35;5.97;;;4.50;;
18808;SDS011;9532;54.322;10.116;2022-10-31T04:54:02;7.03;;;4.57;;
18808;SDS011;9532;54.322;10.116;2022-10-31T04:56:31;7.07;;;5.03;;
18808;SDS011;9532;54.322;10.116;2022-10-31T04:58:58;6.73;;;4.33;;
18808;SDS011;9532;54.322;10.116;2022-10-31T05:01:25;6.47;;;4.20;;
18808;SDS011;9532;54.322;10.116;2022-10-31T05:03:52;6.53;;;4.30;;
18808;SDS011;9532;54.322;10.116;2022-10-31T05:06:20;6.67;;;4.80;;
18808;SDS011;9532;54.322;10.116;2022-10-31T05:08:46;5.67;;;4.00;;
18808;SDS011;9532;54.322;10.116;2022-10-31T05:11:13;5.70;;;3.93;;
18808;SDS011;9532;54.322;10.116;2022-10-31T05:13:42;6.87;;;4.30;;
18808;SDS011;9532;54.322;10.116;2022-10-31T05:16:09;6.10;;;4.50;;
18808;SDS011;9532;54.322;10.116;2022-10-31T05:18:36;5.77;;;4.43;;
18808;SDS011;9532;54.322;10.116;2022-10-31T05:21:03;6.13;;;4.13;;
18808;SDS011;9532;54.322;10.116;2022-10-31T05:23:30;5.33;;;3.90;;
18808;SDS011;9532;54.322;10.116;2022-10-31T05:25:57;5.70;;;4.13;;
18808;SDS011;9532;54.322;10.116;2022-10-31T05:28:25;6.40;;;4.20;;
18808;SDS011;9532;54.322;10.116;2022-10-31T05:30:53;5.90;;;4.43;;
18808;SDS011;9532;54.322;10.116;2022-10-31T05:33:20;5.93;;;4.43;;
18808;SDS011;9532;54.322;10.116;2022-10-31T05:35:47;4.50;;;3.90;;
18808;SDS011;9532;54.322;10.116;2022-10-31T05:38:14;6.87;;;4.27;;
18808;SDS011;9532;54.322;10.116;2022-10-31T05:40:41;5.87;;;4.40;;
18808;SDS011;9532;54.322;10.116;2022-10-31T05:43:08;5.27;;;4.03;;
18808;SDS011;9532;54.322;10.116;2022-10-31T05:45:35;6.17;;;4.67;;
18808;SDS011;9532;54.322;10.116;2022-10-31T05:48:04;6.23;;;4.47;;
18808;SDS011;9532;54.322;10.116;2022-10-31T05:50:32;6.27;;;4.27;;
18808;SDS011;9532;54.322;10.116;2022-10-31T05:52:59;6.10;;;4.43;;
18808;SDS011;9532;54.322;10.116;2022-10-31T05:55:28;7.60;;;4.23;;
18808;SDS011;9532;54.322;10.116;2022-10-31T05:57:56;5.37;;;3.90;;
18808;SDS011;9532;54.322;10.116;2022-10-31T06:00:24;4.40;;;3.60;;
18808;SDS011;9532;54.322;10.116;2022-10-31T06:02:57;5.27;;;3.70;;
18808;SDS011;9532;54.322;10.116;2022-10-31T06:05:26;5.33;;;3.80;;
18808;SDS011;9532;54.322;10.116;2022-10-31T06:07:54;5.13;;;4.00;;
18808;SDS011;9532;54.322;10.116;2022-10-31T06:10:21;5.83;;;4.07;;
18808;SDS011;9532;54.322;10.116;2022-10-31T06:12:48;4.27;;;3.70;;
18808;SDS011;9532;54.322;10.116;2022-10-31T06:15:15;5.77;;;4.33;;
18808;SDS011;9532;54.322;10.116;2022-10-31T06:17:43;5.63;;;3.97;;
18808;SDS011;9532;54.322;10.116;2022-10-31T06:20:10;5.77;;;3.93;;
18808;SDS011;9532;54.322;10.116;2022-10-31T06:22:41;5.70;;;4.33;;
18808;SDS011;9532;54.322;10.116;2022-10-31T06:25:08;5.40;;;4.13;;
18808;SDS011;9532;54.322;10.116;2022-10-31T06:27:35;5.77;;;4.27;;
18808;SDS011;9532;54.322;10.116;2022-10-31T06:30:02;4.60;;;3.60;;
18808;SDS011;9532;54.322;10.116;2022-10-31T06:32:30;6.17;;;3.63;;
18808;SDS011;9532;54.322;10.116;2022-10-31T06:34:57;6.40;;;4.20;;
18808;SDS011;9532;54.322;10.116;2022-10-31T06:37:24;5.93;;;4.30;;
18808;SDS011;9532;54.322;10.116;2022-10-31T06:39:53;4.60;;;3.50;;
18808;SDS011;9532;54.322;10.116;2022-10-31T06:42:20;6.53;;;3.60;;
18808;SDS011;9532;54.322;10.116;2022-10-31T06:44:47;5.67;;;4.00;;
18808;SDS011;9532;54.322;10.116;2022-10-31T06:47:14;7.10;;;4.10;;
18808;SDS011;9532;54.322;10.116;2022-10-31T06:49:40;5.63;;;4.17;;
18808;SDS011;9532;54.322;10.116;2022-10-31T06:52:08;5.37;;;4.20;;
18808;SDS011;9532;54.322;10.116;2022-10-31T06:54:35;5.37;;;3.73;;
18808;SDS011;9532;54.322;10.116;2022-10-31T06:57:03;7.03;;;4.10;;
18808;SDS011;9532;54.322;10.116;2022-10-31T06:59:30;4.80;;;3.80;;
18808;SDS011;9532;54.322;10.116;2022-10-31T07:01:58;5.57;;;3.90;;
18808;SDS011;9532;54.322;10.116;2022-10-31T07:04:25;5.10;;;3.53;;
18808;SDS011;9532;54.322;10.116;2022-10-31T07:06:52;5.33;;;3.53;;
18808;SDS011;9532;54.322;10.116;2022-10-31T07:09:19;7.03;;;3.40;;
18808;SDS011;9532;54.322;10.116;2022-10-31T07:11:46;5.07;;;3.90;;
18808;SDS011;9532;54.322;10.116;2022-10-31T07:14:15;4.97;;;3.63;;
18808;SDS011;9532;54.322;10.116;2022-10-31T07:16:42;8.50;;;3.80;;
18808;SDS011;9532;54.322;10.116;2022-10-31T07:19:09;7.27;;;3.70;;
18808;SDS011;9532;54.322;10.116;2022-10-31T07:21:36;8.03;;;3.80;;
18808;SDS011;9532;54.322;10.116;2022-10-31T07:24:04;6.43;;;3.50;;
18808;SDS011;9532;54.322;10.116;2022-10-31T07:26:31;10.67;;;4.13;;
18808;SDS011;9532;54.322;10.116;2022-10-31T07:28:58;8.57;;;3.87;;
18808;SDS011;9532;54.322;10.116;2022-10-31T07:31:26;7.43;;;3.90;;
18808;SDS011;9532;54.322;10.116;2022-10-31T07:33:53;9.93;;;3.70;;
18808;SDS011;9532;54.322;10.116;2022-10-31T07:36:20;7.10;;;3.57;;
18808;SDS011;9532;54.322;10.116;2022-10-31T07:38:47;9.80;;;5.27;;
18808;SDS011;9532;54.322;10.116;2022-10-31T07:41:14;25.37;;;9.33;;
18808;SDS011;9532;54.322;10.116;2022-10-31T07:43:41;17.20;;;9.03;;
18808;SDS011;9532;54.322;10.116;2022-10-31T07:46:08;12.80;;;6.97;;
18808;SDS011;9532;54.322;10.116;2022-10-31T07:48:37;12.40;;;6.83;;
18808;SDS011;9532;54.322;10.116;2022-10-31T07:51:04;13.30;;;6.27;;
18808;SDS011;9532;54.322;10.116;2022-10-31T07:53:32;14.73;;;5.80;;
18808;SDS011;9532;54.322;10.116;2022-10-31T07:55:59;12.73;;;6.27;;
18808;SDS011;9532;54.322;10.116;2022-10-31T07:58:26;12.87;;;6.30;;
18808;SDS011;9532;54.322;10.116;2022-10-31T08:00:53;11.40;;;5.30;;
18808;SDS011;9532;54.322;10.116;2022-10-31T08:03:20;14.83;;;5.20;;
18808;SDS011;9532;54.322;10.116;2022-10-31T08:05:48;9.17;;;4.70;;
18808;SDS011;9532;54.322;10.116;2022-10-31T08:08:15;9.00;;;4.80;;
18808;SDS011;9532;54.322;10.116;2022-10-31T08:10:42;10.47;;;5.00;;
18808;SDS011;9532;54.322;10.116;2022-10-31T08:13:10;11.37;;;5.00;;
18808;SDS011;9532;54.322;10.116;2022-10-31T08:15:38;9.73;;;4.70;;
18808;SDS011;9532;54.322;10.116;2022-10-31T08:18:07;7.90;;;4.27;;
18808;SDS011;9532;54.322;10.116;2022-10-31T08:20:38;13.80;;;4.50;;
18808;SDS011;9532;54.322;10.116;2022-10-31T08:23:08;8.17;;;4.50;;
18808;SDS011;9532;54.322;10.116;2022-10-31T08:25:36;7.77;;;4.27;;
18808;SDS011;9532;54.322;10.116;2022-10-31T08:28:04;10.30;;;4.77;;
18808;SDS011;9532;54.322;10.116;2022-10-31T08:30:33;12.53;;;4.67;;
18808;SDS011;9532;54.322;10.116;2022-10-31T08:33:02;15.07;;;4.67;;
18808;SDS011;9532;54.322;10.116;2022-10-31T08:35:30;13.87;;;4.70;;
18808;SDS011;9532;54.322;10.116;2022-10-31T08:37:58;11.13;;;4.40;;
18808;SDS011;9532;54.322;10.116;2022-10-31T08:40:27;17.80;;;4.93;;
18808;SDS011;9532;54.322;10.116;2022-10-31T08:42:56;7.03;;;3.90;;
18808;SDS011;9532;54.322;10.116;2022-10-31T08:45:25;17.37;;;3.87;;
18808;SDS011;9532;54.322;10.116;2022-10-31T08:47:52;15.80;;;3.23;;
18808;SDS011;9532;54.322;10.116;2022-10-31T08:50:23;16.50;;;3.60;;
18808;SDS011;9532;54.322;10.116;2022-10-31T08:52:50;11.70;;;3.37;;
18808;SDS011;9532;54.322;10.116;2022-10-31T08:55:17;8.73;;;3.10;;
18808;SDS011;9532;54.322;10.116;2022-10-31T08:57:46;8.03;;;2.53;;
18808;SDS011;9532;54.322;10.116;2022-10-31T09:00:13;6.70;;;2.50;;
18808;SDS011;9532;54.322;10.116;2022-10-31T09:02:40;6.63;;;2.53;;
18808;SDS011;9532;54.322;10.116;2022-10-31T09:05:07;8.00;;;2.80;;
18808;SDS011;9532;54.322;10.116;2022-10-31T09:07:34;10.70;;;2.93;;
18808;SDS011;9532;54.322;10.116;2022-10-31T09:10:02;7.60;;;2.50;;
18808;SDS011;9532;54.322;10.116;2022-10-31T09:12:29;9.67;;;2.57;;
18808;SDS011;9532;54.322;10.116;2022-10-31T09:14:58;10.23;;;2.40;;
18808;SDS011;9532;54.322;10.116;2022-10-31T09:17:26;9.67;;;2.77;;
18808;SDS011;9532;54.322;10.116;2022-10-31T09:19:54;6.37;;;2.43;;
18808;SDS011;9532;54.322;10.116;2022-10-31T09:22:21;12.40;;;2.73;;
18808;SDS011;9532;54.322;10.116;2022-10-31T09:24:48;4.47;;;2.40;;
18808;SDS011;9532;54.322;10.116;2022-10-31T09:27:15;7.63;;;2.20;;
18808;SDS011;9532;54.322;10.116;2022-10-31T09:29:42;6.43;;;2.30;;
18808;SDS011;9532;54.322;10.116;2022-10-31T09:32:10;10.47;;;2.30;;
18808;SDS011;9532;54.322;10.116;2022-10-31T09:34:37;7.73;;;2.33;;
18808;SDS011;9532;54.322;10.116;2022-10-31T09:37:04;6.70;;;2.20;;
18808;SDS011;9532;54.322;10.116;2022-10-31T09:39:31;7.43;;;2.57;;
18808;SDS011;9532;54.322;10.116;2022-10-31T09:42:06;17.27;;;2.50;;
18808;SDS011;9532;54.322;10.116;2022-10-31T09:44:48;9.67;;;2.20;;
18808;SDS011;9532;54.322;10.116;2022-10-31T09:47:26;9.30;;;2.03;;
18808;SDS011;9532;54.322;10.116;2022-10-31T09:50:06;9.00;;;2.57;;
18808;SDS011;9532;54.322;10.116;2022-10-31T09:52:43;9.77;;;2.50;;
18808;SDS011;9532;54.322;10.116;2022-10-31T09:55:16;6.30;;;2.03;;
18808;SDS011;9532;54.322;10.116;2022-10-31T09:57:45;10.43;;;2.10;;
18808;SDS011;9532;54.322;10.116;2022-10-31T10:00:15;8.57;;;1.70;;
18808;SDS011;9532;54.322;10.116;2022-10-31T10:02:46;3.47;;;1.90;;
18808;SDS011;9532;54.322;10.116;2022-10-31T10:05:21;8.10;;;2.47;;
18808;SDS011;9532;54.322;10.116;2022-10-31T10:07:54;8.40;;;2.00;;
18808;SDS011;9532;54.322;10.116;2022-10-31T10:10:32;9.37;;;2.13;;
18808;SDS011;9532;54.322;10.116;2022-10-31T10:13:14;8.43;;;2.37;;
18808;SDS011;9532;54.322;10.116;2022-10-31T10:16:00;13.07;;;2.20;;
18808;SDS011;9532;54.322;10.116;2022-10-31T10:18:43;9.50;;;2.20;;
18808;SDS011;9532;54.322;10.116;2022-10-31T10:21:23;6.03;;;1.67;;
18808;SDS011;9532;54.322;10.116;2022-10-31T10:24:00;6.07;;;1.90;;
18808;SDS011;9532;54.322;10.116;2022-10-31T10:26:38;4.80;;;2.00;;
18808;SDS011;9532;54.322;10.116;2022-10-31T10:29:21;4.47;;;1.63;;
18808;SDS011;9532;54.322;10.116;2022-10-31T10:32:00;11.87;;;2.40;;
18808;SDS011;9532;54.322;10.116;2022-10-31T10:34:33;11.40;;;2.77;;
18808;SDS011;9532;54.322;10.116;2022-10-31T10:37:08;12.27;;;1.87;;
18808;SDS011;9532;54.322;10.116;2022-10-31T10:39:43;7.23;;;1.87;;
18808;SDS011;9532;54.322;10.116;2022-10-31T10:42:15;8.10;;;2.30;;
18808;SDS011;9532;54.322;10.116;2022-10-31T10:44:59;8.77;;;2.40;;
18808;SDS011;9532;54.322;10.116;2022-10-31T10:47:50;7.47;;;2.20;;
18808;SDS011;9532;54.322;10.116;2022-10-31T10:50:25;7.43;;;2.67;;
18808;SDS011;9532;54.322;10.116;2022-10-31T10:53:16;27.90;;;11.90;;
18808;SDS011;9532;54.322;10.116;2022-10-31T10:56:02;29.13;;;14.07;;
18808;SDS011;9532;54.322;10.116;2022-10-31T10:58:37;107.20;;;44.83;;
18808;SDS011;9532;54.322;10.116;2022-10-31T11:01:09;78.57;;;37.27;;
18808;SDS011;9532;54.322;10.116;2022-10-31T11:03:38;55.37;;;25.60;;
18808;SDS011;9532;54.322;10.116;2022-10-31T11:06:15;31.07;;;15.07;;
18808;SDS011;9532;54.322;10.116;2022-10-31T11:08:47;22.20;;;10.87;;
18808;SDS011;9532;54.322;10.116;2022-10-31T11:11:19;22.20;;;11.17;;
18808;SDS011;9532;54.322;10.116;2022-10-31T11:13:52;24.07;;;10.60;;
18808;SDS011;9532;54.322;10.116;2022-10-31T11:16:28;23.20;;;9.43;;
18808;SDS011;9532;54.322;10.116;2022-10-31T11:19:05;14.20;;;7.83;;
18808;SDS011;9532;54.322;10.116;2022-10-31T11:21:36;16.37;;;7.27;;
18808;SDS011;9532;54.322;10.116;2022-10-31T11:24:03;16.67;;;7.53;;
18808;SDS011;9532;54.322;10.116;2022-10-31T11:26:39;15.90;;;6.10;;
18808;SDS011;9532;54.322;10.116;2022-10-31T11:29:11;14.50;;;6.70;;
18808;SDS011;9532;54.322;10.116;2022-10-31T11:31:41;12.23;;;6.37;;
18808;SDS011;9532;54.322;10.116;2022-10-31T11:34:14;11.87;;;6.20;;
18808;SDS011;9532;54.322;10.116;2022-10-31T11:36:46;13.23;;;5.80;;
18808;SDS011;9532;54.322;10.116;2022-10-31T11:39:16;12.70;;;6.10;;
18808;SDS011;9532;54.322;10.116;2022-10-31T11:41:46;11.90;;;5.50;;
18808;SDS011;9532;54.322;10.116;2022-10-31T11:44:15;12.87;;;5.77;;
18808;SDS011;9532;54.322;10.116;2022-10-31T11:46:45;11.00;;;5.30;;
18808;SDS011;9532;54.322;10.116;2022-10-31T11:49:15;11.73;;;5.73;;
18808;SDS011;9532;54.322;10.116;2022-10-31T11:51:49;11.47;;;5.47;;
18808;SDS011;9532;54.322;10.116;2022-10-31T11:54:22;12.37;;;5.80;;
18808;SDS011;9532;54.322;10.116;2022-10-31T11:56:51;16.63;;;5.73;;
18808;SDS011;9532;54.322;10.116;2022-10-31T11:59:21;10.43;;;5.17;;
18808;SDS011;9532;54.322;10.116;2022-10-31T12:01:52;11.10;;;5.20;;
18808;SDS011;9532;54.322;10.116;2022-10-31T12:04:23;18.53;;;5.57;;
18808;SDS011;9532;54.322;10.116;2022-10-31T12:06:57;11.40;;;5.20;;
18808;SDS011;9532;54.322;10.116;2022-10-31T12:09:25;8.40;;;4.80;;
18808;SDS011;9532;54.322;10.116;2022-10-31T12:15:05;16.17;;;5.13;;
18808;SDS011;9532;54.322;10.116;2022-10-31T12:17:55;11.60;;;4.23;;
18808;SDS011;9532;54.322;10.116;2022-10-31T12:20:49;14.13;;;4.73;;
18808;SDS011;9532;54.322;10.116;2022-10-31T12:23:25;9.80;;;4.10;;
18808;SDS011;9532;54.322;10.116;2022-10-31T12:26:06;10.90;;;3.87;;
18808;SDS011;9532;54.322;10.116;2022-10-31T12:31:34;9.00;;;4.63;;
18808;SDS011;9532;54.322;10.116;2022-10-31T12:37:09;9.73;;;4.23;;
18808;SDS011;9532;54.322;10.116;2022-10-31T12:39:50;11.87;;;4.00;;
18808;SDS011;9532;54.322;10.116;2022-10-31T12:42:26;9.57;;;4.20;;
18808;SDS011;9532;54.322;10.116;2022-10-31T12:45:07;14.43;;;4.20;;
18808;SDS011;9532;54.322;10.116;2022-10-31T12:47:54;8.23;;;4.13;;
18808;SDS011;9532;54.322;10.116;2022-10-31T12:50:47;8.77;;;3.80;;
18808;SDS011;9532;54.322;10.116;2022-10-31T12:53:22;12.93;;;3.87;;
18808;SDS011;9532;54.322;10.116;2022-10-31T12:56:15;9.10;;;3.37;;
18808;SDS011;9532;54.322;10.116;2022-10-31T12:58:56;7.23;;;3.40;;
18808;SDS011;9532;54.322;10.116;2022-10-31T13:01:29;8.13;;;3.27;;
18808;SDS011;9532;54.322;10.116;2022-10-31T13:04:02;10.30;;;2.90;;
18808;SDS011;9532;54.322;10.116;2022-10-31T13:06:33;12.53;;;3.40;;
18808;SDS011;9532;54.322;10.116;2022-10-31T13:09:05;8.27;;;3.20;;
18808;SDS011;9532;54.322;10.116;2022-10-31T13:11:37;6.73;;;3.23;;
18808;SDS011;9532;54.322;10.116;2022-10-31T13:14:11;7.60;;;2.83;;
18808;SDS011;9532;54.322;10.116;2022-10-31T13:16:45;6.27;;;2.90;;
18808;SDS011;9532;54.322;10.116;2022-10-31T13:19:15;6.33;;;2.70;;
18808;SDS011;9532;54.322;10.116;2022-10-31T13:21:49;6.60;;;2.47;;
18808;SDS011;9532;54.322;10.116;2022-10-31T13:24:26;6.70;;;2.67;;
18808;SDS011;9532;54.322;10.116;2022-10-31T13:27:01;7.53;;;2.37;;
18808;SDS011;9532;54.322;10.116;2022-10-31T13:29:35;5.83;;;2.60;;
18808;SDS011;9532;54.322;10.116;2022-10-31T13:32:08;9.70;;;3.30;;
18808;SDS011;9532;54.322;10.116;2022-10-31T13:34:38;4.27;;;2.27;;
18808;SDS011;9532;54.322;10.116;2022-10-31T13:37:10;5.13;;;2.23;;
18808;SDS011;9532;54.322;10.116;2022-10-31T13:39:48;5.27;;;2.03;;
18808;SDS011;9532;54.322;10.116;2022-10-31T13:42:31;13.50;;;2.17;;
18808;SDS011;9532;54.322;10.116;2022-10-31T13:45:14;8.30;;;2.43;;
18808;SDS011;9532;54.322;10.116;2022-10-31T13:47:42;8.13;;;2.13;;
18808;SDS011;9532;54.322;10.116;2022-10-31T13:50:21;6.27;;;2.30;;
18808;SDS011;9532;54.322;10.116;2022-10-31T13:52:50;10.27;;;2.50;;
18808;SDS011;9532;54.322;10.116;2022-10-31T13:55:36;8.00;;;2.17;;
18808;SDS011;9532;54.322;10.116;2022-10-31T13:58:19;9.33;;;2.53;;
18808;SDS011;9532;54.322;10.116;2022-10-31T14:00:58;13.77;;;2.27;;
18808;SDS011;9532;54.322;10.116;2022-10-31T14:03:40;11.57;;;2.30;;
18808;SDS011;9532;54.322;10.116;2022-10-31T14:06:10;10.33;;;2.17;;
18808;SDS011;9532;54.322;10.116;2022-10-31T14:08:39;7.07;;;2.10;;
18808;SDS011;9532;54.322;10.116;2022-10-31T14:11:09;13.40;;;2.07;;
18808;SDS011;9532;54.322;10.116;2022-10-31T14:13:50;14.97;;;2.07;;
18808;SDS011;9532;54.322;10.116;2022-10-31T14:16:18;8.77;;;2.00;;
18808;SDS011;9532;54.322;10.116;2022-10-31T14:18:51;10.03;;;1.80;;
18808;SDS011;9532;54.322;10.116;2022-10-31T14:21:26;11.27;;;2.23;;
18808;SDS011;9532;54.322;10.116;2022-10-31T14:23:55;10.87;;;2.00;;
18808;SDS011;9532;54.322;10.116;2022-10-31T14:26:33;10.37;;;2.20;;
18808;SDS011;9532;54.322;10.116;2022-10-31T14:29:20;6.53;;;1.87;;
18808;SDS011;9532;54.322;10.116;2022-10-31T14:31:53;5.00;;;1.80;;
18808;SDS011;9532;54.322;10.116;2022-10-31T14:34:36;5.03;;;1.60;;
18808;SDS011;9532;54.322;10.116;2022-10-31T14:37:15;10.77;;;2.13;;
18808;SDS011;9532;54.322;10.116;2022-10-31T14:43:05;14.03;;;1.80;;
18808;SDS011;9532;54.322;10.116;2022-10-31T14:45:49;12.27;;;1.73;;
18808;SDS011;9532;54.322;10.116;2022-10-31T14:48:34;16.93;;;2.20;;
18808;SDS011;9532;54.322;10.116;2022-10-31T14:51:17;5.53;;;1.53;;
18808;SDS011;9532;54.322;10.116;2022-10-31T14:53:55;8.63;;;1.90;;
18808;SDS011;9532;54.322;10.116;2022-10-31T14:56:29;11.33;;;2.10;;
18808;SDS011;9532;54.322;10.116;2022-10-31T14:58:59;11.70;;;3.73;;
18808;SDS011;9532;54.322;10.116;2022-10-31T15:01:31;14.10;;;3.50;;
18808;SDS011;9532;54.322;10.116;2022-10-31T15:04:03;6.67;;;3.50;;
18808;SDS011;9532;54.322;10.116;2022-10-31T15:06:36;22.20;;;3.63;;
18808;SDS011;9532;54.322;10.116;2022-10-31T15:09:20;21.17;;;3.53;;
18808;SDS011;9532;54.322;10.116;2022-10-31T15:11:48;23.87;;;3.10;;
18808;SDS011;9532;54.322;10.116;2022-10-31T15:14:21;15.77;;;2.70;;
18808;SDS011;9532;54.322;10.116;2022-10-31T15:16:51;24.17;;;3.10;;
18808;SDS011;9532;54.322;10.116;2022-10-31T15:19:21;13.63;;;2.60;;
18808;SDS011;9532;54.322;10.116;2022-10-31T15:21:50;17.10;;;2.50;;